^^
Grace C. Lehan Memorial Weather Station Historical Data
Daily Summary for January 19, 2021 Units:  English    Metric   Both
Daily Weekly Monthly Yearly
  High: Low: Average:
Temperature: 47.9 °F 34.1 °F 42.3 °F
Dew Point: 43.8 °F 26.8 °F 34.1 °F
Humidity: 95% 51.3% 74%
Wind Speed: 13mph 0mph 2.9mph
Wind Gust: 25mph - -
Wind- - WNW
Pressure: 30.42 in 29.93 in -
Precipitation: 0.11 in    
 
 
Tabular Data for January 19, 2021
Time Temperature Dew Point Pressure Wind Wind Speed Wind Gust Humidity Rainfall Rate (Hourly) solar
00:04 46.2 °F 43.8 °F 29.95 in NNW 2.3 mph 12 mph 91% 0.06 in 0 W/m2
00:09 46 °F 43.6 °F 29.96 in NNW 1.1 mph 8 mph 91% 0.05 in 0 W/m2
00:14 45.9 °F 43.4 °F 29.95 in NNW 1.2 mph 8 mph 91% 0.05 in 0 W/m2
00:19 45.8 °F 43.3 °F 29.94 in NNW 0.8 mph 8 mph 91% 0.05 in 0 W/m2
00:24 45.6 °F 43.1 °F 29.95 in NW 1.1 mph 8 mph 91% 0.06 in 0 W/m2
00:29 45.4 °F 42.9 °F 29.95 in NW 1.3 mph 8 mph 91% 0.06 in 0 W/m2
00:34 45.3 °F 42.8 °F 29.95 in NW 2.5 mph 9 mph 91% 0.06 in 0 W/m2
00:39 45.1 °F 42.7 °F 29.95 in NW 1.1 mph 9 mph 91.1% 0.05 in 0 W/m2
00:44 45 °F 42.8 °F 29.95 in NNW 0.3 mph 9 mph 92% 0.05 in 0 W/m2
00:49 44.9 °F 42.6 °F 29.95 in NNW 1.1 mph 9 mph 91.7% 0.06 in 0 W/m2
00:54 44.7 °F 42.6 °F 29.94 in NNW 0.3 mph 9 mph 92% 0.07 in 0 W/m2
00:59 44.7 °F 42.5 °F 29.94 in Calm   9 mph 92% 0.09 in 0 W/m2
01:04 44.5 °F 42.3 °F 29.94 in NNW 0.7 mph 9 mph 92% 0.09 in 0 W/m2
01:09 44.2 °F 42 °F 29.94 in NNW 1.8 mph 10 mph 91.9% 0.08 in 0 W/m2
01:14 43.9 °F 41.5 °F 29.93 in NNW 1.2 mph 10 mph 91.2% 0.09 in 0 W/m2
01:19 43.5 °F 41 °F 29.95 in NNW 0.6 mph 10 mph 91% 0.10 in 0 W/m2
01:24 43.2 °F 40.8 °F 29.95 in Calm   10 mph 91% 0.10 in 0 W/m2
01:29 43 °F 40.6 °F 29.96 in Calm   10 mph 91% 0.10 in 0 W/m2
01:34 42.9 °F 40.4 °F 29.96 in Calm   10 mph 91% 0.10 in 0 W/m2
01:39 42.7 °F 40.3 °F 29.96 in Calm     91.2% 0.09 in 0 W/m2
01:44 42.6 °F 40.4 °F 29.95 in Calm     92% 0.09 in 0 W/m2
01:49 42.5 °F 40.3 °F 29.95 in Calm     92% 0.09 in 0 W/m2
01:54 42.5 °F 40.4 °F 29.95 in Calm     92% 0.09 in 0 W/m2
01:59 42.6 °F 40.4 °F 29.96 in Calm     92% 0.09 in 0 W/m2
02:04 42.6 °F 40.4 °F 29.96 in Calm     92% 0.09 in 0 W/m2
02:09 42.6 °F 40.7 °F 29.96 in Calm     92.9% 0.04 in 0 W/m2
02:14 42.6 °F 40.7 °F 29.96 in Calm     93% 0.04 in 0 W/m2
02:19 42.6 °F 40.7 °F 29.94 in Calm     93% 0.04 in 0 W/m2
02:24 42.6 °F 40.7 °F 29.94 in Calm     93% 0.04 in 0 W/m2
02:29 42.6 °F 40.7 °F 29.94 in Calm     93% 0.04 in 0 W/m2
02:34 42.6 °F 40.7 °F 29.95 in Calm     93% 0.04 in 0 W/m2
02:39 42.6 °F 40.7 °F 29.96 in Calm     93% 0.01 in 0 W/m2
02:44 42.5 °F 40.6 °F 29.96 in Calm     93% 0.01 in 0 W/m2
02:49 42.5 °F 40.6 °F 29.96 in Calm     93% 0.01 in 0 W/m2
02:54 42.5 °F 40.6 °F 29.96 in Calm     93% 0.01 in 0 W/m2
02:59 42.5 °F 40.6 °F 29.96 in Calm     93% 0.01 in 0 W/m2
03:04 42.4 °F 40.5 °F 29.96 in Calm     93% 0.01 in 0 W/m2
03:09 42.3 °F 40.4 °F 29.95 in Calm     93% 0.00 in 0 W/m2
03:14 42.2 °F 40.3 °F 29.95 in Calm     93% 0.00 in 0 W/m2
03:19 42.1 °F 40.2 °F 29.96 in Calm     93% 0.00 in 0 W/m2
03:24 42.1 °F 40.4 °F 29.97 in Calm     93.9% 0.00 in 0 W/m2
03:29 42 °F 40.3 °F 29.97 in Calm     93.5% 0.00 in 0 W/m2
03:34 41.9 °F 40 °F 29.97 in Calm     93% 0.00 in 0 W/m2
03:39 41.8 °F 39.9 °F 29.97 in Calm     93% 0.00 in 0 W/m2
03:44 41.7 °F 39.9 °F 29.98 in Calm     93.2% 0.00 in 0 W/m2
03:49 41.6 °F 40 °F 29.98 in Calm     93.9% 0.00 in 0 W/m2
03:54 41.5 °F 39.9 °F 29.99 in Calm     94% 0.00 in 0 W/m2
03:59 41.3 °F 39.6 °F 29.99 in Calm     93.5% 0.00 in 0 W/m2
04:09 41.1 °F 39.5 °F 29.99 in Calm     94% 0.00 in 0 W/m2
04:14 40.9 °F 39.3 °F 29.99 in Calm     94% 0.00 in 0 W/m2
04:19 40.7 °F 39.1 °F 29.99 in Calm     93.9% 0.00 in 0 W/m2
04:24 40.6 °F 39 °F 29.99 in Calm     94% 0.00 in 0 W/m2
04:29 40.5 °F 38.9 °F 29.99 in Calm     94% 0.00 in 0 W/m2
04:34 40.4 °F 38.8 °F 29.99 in Calm     94% 0.00 in 0 W/m2
04:39 40.2 °F 38.6 °F 29.99 in Calm     94% 0.00 in 0 W/m2
04:44 40.1 °F 38.5 °F 29.99 in Calm     94% 0.00 in 0 W/m2
04:49 40 °F 38.4 °F 29.99 in Calm   1 mph 94% 0.00 in 0 W/m2
04:54 39.9 °F 38.3 °F 30.00 in Calm   1 mph 94% 0.00 in 0 W/m2
04:59 39.9 °F 38.3 °F 30.00 in Calm   1 mph 94% 0.00 in 0 W/m2
05:04 39.8 °F 38.2 °F 30.01 in Calm   1 mph 94% 0.00 in 0 W/m2
05:09 39.8 °F 38.2 °F 30.01 in Calm     94% 0.00 in 0 W/m2
05:14 39.8 °F 38.2 °F 30.01 in Calm     94% 0.00 in 0 W/m2
05:19 39.7 °F 38.1 °F 30.01 in NNW 0.4 mph 4 mph 94% 0.00 in 0 W/m2
05:24 39.7 °F 38.1 °F 30.01 in WNW 0.9 mph 7 mph 94% 0.00 in 0 W/m2
05:29 39.6 °F 38 °F 30.01 in Calm   7 mph 94% 0.00 in 0 W/m2
05:34 39.5 °F 37.9 °F 30.02 in WNW 0.9 mph 7 mph 94% 0.00 in 0 W/m2
05:39 39.3 °F 37.8 °F 30.02 in WNW 1.1 mph 5 mph 94% 0.00 in 0 W/m2
05:44 39.2 °F 37.6 °F 30.02 in NW 1.9 mph 6 mph 94% 0.00 in 0 W/m2
05:49 39 °F 37.4 °F 30.02 in WNW 1.9 mph 9 mph 94% 0.00 in 0 W/m2
05:54 38.9 °F 37.1 °F 30.03 in WNW 0.7 mph 9 mph 93.4% 0.00 in 0 W/m2
05:59 38.8 °F 37 °F 30.03 in WNW 0.2 mph 9 mph 93% 0.00 in 0 W/m2
06:04 38.8 °F 36.9 °F 30.03 in Calm   9 mph 93% 0.00 in 0 W/m2
06:09 38.7 °F 36.8 °F 30.03 in Calm     93% 0.00 in 0 W/m2
06:14 38.6 °F 36.8 °F 30.03 in Calm     93% 0.00 in 0 W/m2
06:19 38.5 °F 36.5 °F 30.03 in Calm     92.7% 0.00 in 0 W/m2
06:24 38.4 °F 36.3 °F 30.03 in Calm     92% 0.00 in 0 W/m2
06:29 38.3 °F 36.2 °F 30.03 in Calm     92% 0.00 in 0 W/m2
06:34 38.2 °F 36.1 °F 30.04 in Calm     92% 0.00 in 0 W/m2
06:39 38.1 °F 36 °F 30.04 in Calm     92% 0.00 in 0 W/m2
06:44 38 °F 35.9 °F 30.04 in Calm     92% 0.00 in 0 W/m2
06:49 37.9 °F 35.8 °F 30.04 in Calm     92% 0.00 in 7 W/m2
06:54 37.9 °F 35.9 °F 30.05 in Calm     92.5% 0.00 in 9 W/m2
06:59 37.9 °F 36.1 °F 30.05 in Calm     93% 0.00 in 9 W/m2
07:04 38 °F 36.2 °F 30.05 in Calm     93% 0.00 in 12 W/m2
07:09 38 °F 36.2 °F 30.05 in Calm     93% 0.00 in 19 W/m2
07:14 38 °F 36.2 °F 30.06 in Calm     93% 0.00 in 19 W/m2
07:19 38.2 °F 36.3 °F 30.06 in Calm     93% 0.00 in 21 W/m2
07:24 38.3 °F 36.5 °F 30.06 in Calm     93% 0.00 in 32 W/m2
07:29 38.4 °F 36.8 °F 30.06 in Calm     93.6% 0.00 in 32 W/m2
07:34 38.6 °F 37 °F 30.07 in WNW 0.1 mph 2 mph 94% 0.00 in 25 W/m2
07:39 38.7 °F 37.1 °F 30.07 in WNW 0.5 mph 2 mph 94% 0.00 in 26 W/m2
07:44 38.8 °F 37.2 °F 30.07 in Calm   2 mph 94% 0.00 in 30 W/m2
07:49 38.9 °F 37.4 °F 30.07 in Calm   2 mph 94% 0.00 in 37 W/m2
07:54 39.1 °F 37.5 °F 30.07 in WNW 0.2 mph 4 mph 94% 0.00 in 39 W/m2
07:59 39.2 °F 37.6 °F 30.08 in Calm   4 mph 94% 0.00 in 37 W/m2
08:09 39.4 °F 37.9 °F 30.08 in WNW 0.1 mph 2 mph 94% 0.00 in 114 W/m2
08:14 39.6 °F 38 °F 30.08 in WNW 0.3 mph 4 mph 94% 0.00 in 220 W/m2
08:19 40.3 °F 38.8 °F 30.08 in WNW 0.5 mph 4 mph 94.3% 0.00 in 241 W/m2
08:24 41.2 °F 39.9 °F 30.08 in WNW 0.1 mph 4 mph 95% 0.00 in 246 W/m2
08:29 42.2 °F 40.9 °F 30.09 in WNW 0.7 mph 5 mph 95% 0.00 in 258 W/m2
08:34 42.7 °F 41.1 °F 30.09 in West 1.1 mph 5 mph 93.9% 0.00 in 128 W/m2
08:39 42.9 °F 40.7 °F 30.10 in West 0.7 mph 5 mph 91.8% 0.00 in 105 W/m2
08:44 42.8 °F 39.9 °F 30.10 in West 0.8 mph 5 mph 89.6% 0.00 in 47 W/m2
08:49 42.5 °F 39.2 °F 30.10 in West 0.6 mph 5 mph 88% 0.00 in 295 W/m2
08:54 42.7 °F 39.4 °F 30.10 in West 2.3 mph 9 mph 88% 0.00 in 287 W/m2
08:59 43 °F 39.4 °F 30.10 in West 0.3 mph 9 mph 87.1% 0.00 in 271 W/m2
09:04 43.3 °F 39.5 °F 30.10 in West 0.1 mph 9 mph 86.3% 0.00 in 211 W/m2
09:09 43.6 °F 39.4 °F 30.11 in West 0.8 mph 5 mph 85% 0.00 in 134 W/m2
09:14 43.7 °F 39.2 °F 30.11 in West 0.3 mph 5 mph 84% 0.00 in 132 W/m2
09:19 43.9 °F 39.4 °F 30.11 in West 0.1 mph 5 mph 84% 0.00 in 142 W/m2
09:24 44.1 °F 39.3 °F 30.11 in Calm   5 mph 83.1% 0.00 in 258 W/m2
09:29 44.2 °F 38.9 °F 30.11 in West 4.2 mph 12 mph 81.3% 0.00 in 220 W/m2
09:34 44.3 °F 37.5 °F 30.11 in NW 1.3 mph 12 mph 76.8% 0.00 in 144 W/m2
09:39 44.3 °F 36.9 °F 30.12 in NW 3.4 mph 11 mph 75.2% 0.00 in 174 W/m2
09:44 44.3 °F 36.4 °F 30.12 in West 2.3 mph 11 mph 73.3% 0.00 in 199 W/m2
09:49 44.4 °F 35.6 °F 30.12 in West 3.3 mph 12 mph 70.9% 0.00 in 236 W/m2
09:54 44.5 °F 35 °F 30.12 in WNW 3.4 mph 12 mph 69.3% 0.00 in 297 W/m2
09:59 44.7 °F 34.7 °F 30.12 in WNW 4.7 mph 16 mph 67.7% 0.00 in 343 W/m2
10:04 45.3 °F 35.1 °F 30.13 in WNW 4.8 mph 16 mph 67.3% 0.00 in 468 W/m2
10:09 45.9 °F 34.6 °F 30.13 in WNW 7.8 mph 17 mph 64.4% 0.00 in 468 W/m2
10:14 46.4 °F 34 °F 30.13 in West 7.1 mph 17 mph 61.9% 0.00 in 499 W/m2
10:19 47 °F 34.5 °F 30.13 in WNW 7.9 mph 17 mph 61.7% 0.00 in 512 W/m2
10:24 47.5 °F 33.9 °F 30.13 in WNW 8.3 mph 17 mph 58.9% 0.00 in 524 W/m2
10:29 47.8 °F 33.5 °F 30.13 in WNW 10.3 mph 18 mph 57.5% 0.00 in 524 W/m2
10:34 47.7 °F 33.3 °F 30.14 in WNW 7.9 mph 19 mph 57.2% 0.00 in 504 W/m2
10:39 47.6 °F 33.5 °F 30.14 in WNW 9.6 mph 19 mph 57.8% 0.00 in 496 W/m2
10:44 47.8 °F 33.3 °F 30.14 in WNW 7.4 mph 19 mph 57% 0.00 in 332 W/m2
10:49 47.9 °F 33.7 °F 30.14 in WNW 6.9 mph 19 mph 57.5% 0.00 in 253 W/m2
10:54 47.9 °F 33.4 °F 30.14 in West 6.7 mph 22 mph 57.1% 0.00 in 223 W/m2
10:59 47.8 °F 33.4 °F 30.14 in WNW 8.6 mph 22 mph 57.1% 0.00 in 253 W/m2
11:04 47.7 °F 32.8 °F 30.14 in NW 9.1 mph 22 mph 56.2% 0.00 in 439 W/m2
11:09 47.6 °F 32.8 °F 30.14 in WNW 9.5 mph 18 mph 56.2% 0.00 in 439 W/m2
11:14 47.4 °F 32.6 °F 30.14 in WNW 5.1 mph 18 mph 56.3% 0.00 in 186 W/m2
11:19 46.9 °F 31.9 °F 30.15 in WNW 9.2 mph 21 mph 55.6% 0.00 in 299 W/m2
11:24 46.5 °F 31.7 °F 30.15 in WNW 10 mph 21 mph 56.1% 0.00 in 290 W/m2
11:29 46.3 °F 31.7 °F 30.15 in NW 6.7 mph 21 mph 56.4% 0.00 in 179 W/m2
11:34 46.3 °F 32.1 °F 30.15 in NW 5 mph 21 mph 57.3% 0.00 in 276 W/m2
11:39 46.6 °F 32.5 °F 30.15 in NW 6.7 mph 17 mph 57.7% 0.00 in 188 W/m2
11:44 46.8 °F 32.2 °F 30.15 in NW 6.3 mph 17 mph 56.6% 0.00 in 276 W/m2
11:49 46.8 °F 31.9 °F 30.15 in WNW 10.1 mph 19 mph 55.9% 0.00 in 223 W/m2
11:54 46.4 °F 31.6 °F 30.15 in NW 6.7 mph 24 mph 56.1% 0.00 in 185 W/m2
11:59 46.1 °F 31.9 °F 30.15 in NW 8.7 mph 24 mph 57.3% 0.00 in 149 W/m2
12:00 46 °F 31.6 °F 30.15 in NW 12 mph 24 mph 57% 0.00 in 120 W/m2
12:09 45.8 °F 31.9 °F 30.15 in WNW 9.4 mph 19 mph 58% 0.00 in 174 W/m2
12:14 45.8 °F 31.9 °F 30.15 in WNW 8.6 mph 19 mph 58.2% 0.00 in 223 W/m2
12:19 45.7 °F 31.9 °F 30.15 in WNW 7.2 mph 19 mph 58.2% 0.00 in 130 W/m2
12:24 45.6 °F 31.8 °F 30.15 in WNW 11 mph 20 mph 58.1% 0.00 in 151 W/m2
12:29 45.5 °F 31.2 °F 30.15 in WNW 11.2 mph 20 mph 57% 0.00 in 185 W/m2
12:34 45.4 °F 31.3 °F 30.15 in WNW 9.6 mph 20 mph 57.4% 0.00 in 171 W/m2
12:39 45.5 °F 31.6 °F 30.15 in WNW 8.7 mph 19 mph 58% 0.00 in 171 W/m2
12:44 45.7 °F 31.6 °F 30.15 in WNW 7.6 mph 19 mph 57.6% 0.00 in 120 W/m2
12:49 45.7 °F 31.5 °F 30.15 in NW 4.8 mph 19 mph 57.2% 0.00 in 125 W/m2
12:54 45.8 °F 31.5 °F 30.15 in WNW 5 mph 19 mph 57.2% 0.00 in 127 W/m2
12:59 45.9 °F 31.7 °F 30.15 in WNW 6.2 mph 19 mph 57.3% 0.00 in 162 W/m2
13:04 46 °F 31.7 °F 30.15 in West 4.8 mph 19 mph 57.2% 0.00 in 144 W/m2
13:09 46.2 °F 31.6 °F 30.15 in WNW 5.3 mph 12 mph 56.5% 0.00 in 141 W/m2
13:14 46.5 °F 31.9 °F 30.15 in WNW 9 mph 16 mph 56.4% 0.00 in 163 W/m2
13:19 46.9 °F 31.6 °F 30.15 in WNW 6.7 mph 17 mph 55% 0.00 in 90 W/m2
13:24 47.1 °F 31.5 °F 30.15 in WNW 10.5 mph 24 mph 54.4% 0.00 in 44 W/m2
13:29 47 °F 30.8 °F 30.16 in WNW 13 mph 25 mph 53.1% 0.00 in 204 W/m2
13:34 47 °F 30.7 °F 30.16 in WNW 11.1 mph 25 mph 53% 0.00 in 204 W/m2
13:39 46.8 °F 31 °F 30.16 in WNW 5.3 mph 23 mph 53.8% 0.00 in 142 W/m2
13:44 46.9 °F 31.4 °F 30.16 in WNW 7.3 mph 23 mph 54.5% 0.00 in 243 W/m2
13:49 46.9 °F 31.1 °F 30.16 in WNW 5 mph 23 mph 53.8% 0.00 in 193 W/m2
13:54 46.9 °F 31.1 °F 30.16 in WNW 6.7 mph 23 mph 54% 0.00 in 144 W/m2
13:59 46.9 °F 31.2 °F 30.16 in WNW 6.4 mph 23 mph 54.2% 0.00 in 246 W/m2
14:04 47 °F 31.2 °F 30.16 in WNW 7.8 mph 23 mph 54% 0.00 in 163 W/m2
14:09 47 °F 30.9 °F 30.16 in NW 7.6 mph 18 mph 53.2% 0.00 in 114 W/m2
14:14 46.9 °F 31.2 °F 30.16 in WNW 5.1 mph 18 mph 54.1% 0.00 in 72 W/m2
14:19 47 °F 31.2 °F 30.17 in WNW 8 mph 18 mph 54% 0.00 in 70 W/m2
14:24 47 °F 30.8 °F 30.17 in NW 4.9 mph 18 mph 53.1% 0.00 in 125 W/m2
14:29 46.9 °F 30.8 °F 30.17 in NW 5.9 mph 18 mph 53.3% 0.00 in 125 W/m2
14:34 46.9 °F 30.2 °F 30.17 in WNW 8 mph 18 mph 51.9% 0.00 in 88 W/m2
14:39 46.9 °F 29.9 °F 30.17 in WNW 9.8 mph 16 mph 51.3% 0.00 in 49 W/m2
14:44 46.9 °F 30 °F 30.17 in West 8.5 mph 21 mph 51.5% 0.00 in 44 W/m2
14:49 46.9 °F 29.9 °F 30.17 in WNW 7.4 mph 21 mph 51.3% 0.00 in 46 W/m2
14:54 46.9 °F 30.2 °F 30.17 in WNW 5.9 mph 21 mph 52.1% 0.00 in 32 W/m2
14:59 46.8 °F 30.3 °F 30.17 in WNW 5.5 mph 21 mph 52.4% 0.00 in 39 W/m2
15:04 46.7 °F 30.3 °F 30.17 in WNW 5.9 mph 21 mph 52.6% 0.00 in 35 W/m2
15:09 46.5 °F 30.1 °F 30.18 in West 8.3 mph 19 mph 52.5% 0.00 in 44 W/m2
15:14 46.4 °F 29.7 °F 30.18 in WNW 8.7 mph 19 mph 52% 0.00 in 51 W/m2
15:19 46.2 °F 29.6 °F 30.19 in WNW 8.6 mph 19 mph 52% 0.00 in 54 W/m2
15:24 46.1 °F 30 °F 30.19 in West 5.3 mph 19 mph 53% 0.00 in 47 W/m2
15:29 46.1 °F 29.8 °F 30.19 in West 8 mph 19 mph 52.7% 0.00 in 65 W/m2
15:34 46.1 °F 29.9 °F 30.19 in WNW 9.4 mph 19 mph 52.9% 0.00 in 67 W/m2
15:39 46.1 °F 30 °F 30.20 in NW 3.7 mph 16 mph 53.3% 0.00 in 49 W/m2
15:44 46 °F 30.3 °F 30.20 in WNW 6.8 mph 16 mph 54% 0.00 in 53 W/m2
15:49 45.9 °F 30.5 °F 30.21 in WNW 5.2 mph 16 mph 54.5% 0.00 in 30 W/m2
15:54 45.8 °F 30.4 °F 30.21 in WNW 5.2 mph 19 mph 54.7% 0.00 in 26 W/m2
15:59 45.6 °F 30.4 °F 30.21 in WNW 6 mph 19 mph 55.2% 0.00 in 19 W/m2
16:00 45.4 °F 30.2 °F 30.21 in WNW 4 mph 19 mph 55% 0.00 in 11 W/m2
16:09 45 °F 30.7 °F 30.22 in West 4.7 mph 13 mph 57% 0.00 in 9 W/m2
16:14 44.7 °F 30.6 °F 30.22 in WNW 7.3 mph 15 mph 57.4% 0.00 in 7 W/m2
16:19 44.3 °F 30.7 °F 30.22 in WNW 7.3 mph 17 mph 58.4% 0.00 in 5 W/m2
16:24 44.1 °F 30.7 °F 30.22 in WNW 3.8 mph 17 mph 59.2% 0.00 in 0 W/m2
16:29 43.8 °F 30.8 °F 30.22 in WNW 4.6 mph 17 mph 60% 0.00 in 0 W/m2
16:34 43.5 °F 30.8 °F 30.23 in WNW 0.9 mph 17 mph 60.5% 0.00 in 0 W/m2
16:39 43.4 °F 30.9 °F 30.23 in WNW 0.7 mph 4 mph 61.1% 0.00 in 0 W/m2
16:44 43.2 °F 31.1 °F 30.24 in NW 0.6 mph 4 mph 62% 0.00 in 0 W/m2
16:49 43 °F 31.5 °F 30.24 in North 0.1 mph 4 mph 63.4% 0.00 in 0 W/m2
16:54 42.9 °F 31.9 °F 30.24 in North 0.1 mph 4 mph 64.7% 0.00 in 0 W/m2
16:59 42.8 °F 32.1 °F 30.24 in North 0.2 mph 4 mph 65.8% 0.00 in 0 W/m2
17:04 42.6 °F 32.3 °F 30.25 in NNW 0.9 mph 5 mph 66.8% 0.00 in 0 W/m2
17:09 42.3 °F 32.5 °F 30.25 in NW 0.5 mph 5 mph 67.8% 0.00 in 0 W/m2
17:14 42.2 °F 32.6 °F 30.26 in NNW 1 mph 5 mph 68.8% 0.00 in 0 W/m2
17:19 42 °F 32.9 °F 30.26 in NNW 1.9 mph 13 mph 69.9% 0.00 in 0 W/m2
17:24 41.8 °F 33 °F 30.26 in NW 2.2 mph 13 mph 70.7% 0.00 in 0 W/m2
17:29 41.6 °F 32.9 °F 30.26 in NW 1.9 mph 13 mph 71% 0.00 in 0 W/m2
17:34 41.4 °F 32.8 °F 30.26 in WNW 1.1 mph 13 mph 71% 0.00 in 0 W/m2
17:39 41.3 °F 32.8 °F 30.26 in NW 2.6 mph 13 mph 71.5% 0.00 in 0 W/m2
17:44 41.1 °F 32.6 °F 30.27 in WNW 4.7 mph 14 mph 71.3% 0.00 in 0 W/m2
17:49 41.1 °F 31.7 °F 30.27 in WNW 9.1 mph 18 mph 69% 0.00 in 0 W/m2
17:54 41.2 °F 31.3 °F 30.28 in NW 5.7 mph 22 mph 67.5% 0.00 in 0 W/m2
17:59 41.3 °F 31.2 °F 30.28 in WNW 7.6 mph 22 mph 67% 0.00 in 0 W/m2
18:04 41.3 °F 30.9 °F 30.28 in NW 5.2 mph 22 mph 66.3% 0.00 in 0 W/m2
18:09 41.2 °F 30.7 °F 30.29 in NW 1.5 mph 14 mph 66% 0.00 in 0 W/m2
18:14 41.1 °F 30.6 °F 30.29 in NW 1.6 mph 14 mph 66% 0.00 in 0 W/m2
18:19 41 °F 30.6 °F 30.29 in NNW 1.3 mph 14 mph 66.3% 0.00 in 0 W/m2
18:24 40.9 °F 30.8 °F 30.29 in NNW 0.3 mph 14 mph 67% 0.00 in 0 W/m2
18:29 40.7 °F 30.7 °F 30.30 in NNW 0.4 mph 14 mph 67% 0.00 in 0 W/m2
18:34 40.6 °F 30.5 °F 30.30 in NNW 0.5 mph 14 mph 67% 0.00 in 0 W/m2
18:39 40.4 °F 30.6 °F 30.30 in NNW 0.2 mph 3 mph 67.7% 0.00 in 0 W/m2
18:44 40.3 °F 30.6 °F 30.30 in NNW 0.5 mph 4 mph 68% 0.00 in 0 W/m2
18:49 40.2 °F 30.9 °F 30.31 in NNW 0.2 mph 4 mph 69% 0.00 in 0 W/m2
18:54 40.2 °F 30.8 °F 30.31 in NNW 0.1 mph 4 mph 69% 0.00 in 0 W/m2
18:59 40.1 °F 30.9 °F 30.31 in WNW 1.3 mph 8 mph 69.4% 0.00 in 0 W/m2
19:04 40.1 °F 31 °F 30.31 in NW 2.5 mph 12 mph 69.8% 0.00 in 0 W/m2
19:09 40 °F 30.6 °F 30.31 in NW 3.1 mph 12 mph 68.8% 0.00 in 0 W/m2
19:14 40.1 °F 30.4 °F 30.31 in NW 4.3 mph 14 mph 68% 0.00 in 0 W/m2
19:19 40.1 °F 29.7 °F 30.32 in NW 4.1 mph 14 mph 66.2% 0.00 in 0 W/m2
19:24 40.2 °F 29.7 °F 30.32 in NW 5.7 mph 18 mph 65.9% 0.00 in 0 W/m2
19:29 40.2 °F 29.3 °F 30.32 in NW 6.2 mph 18 mph 64.8% 0.00 in 0 W/m2
19:34 40.3 °F 29.3 °F 30.32 in WNW 5 mph 19 mph 64.6% 0.00 in 0 W/m2
19:39 40.2 °F 29 °F 30.32 in NW 3.6 mph 19 mph 64% 0.00 in 0 W/m2
19:44 40.2 °F 29 °F 30.32 in NW 4.5 mph 19 mph 64% 0.00 in 0 W/m2
19:49 40.1 °F 28.9 °F 30.33 in WNW 3.1 mph 19 mph 64% 0.00 in 0 W/m2
19:54 40 °F 28.8 °F 30.33 in WNW 4.6 mph 19 mph 64% 0.00 in 0 W/m2
19:59 39.9 °F 28.7 °F 30.33 in WNW 6.2 mph 19 mph 64% 0.00 in 0 W/m2
20:00 39.8 °F 28.6 °F 30.33 in NW 2 mph 19 mph 64% 0.00 in 0 W/m2
20:09 39.6 °F 28.5 °F 30.33 in WNW 2.8 mph 9 mph 64% 0.00 in 0 W/m2
20:14 39.5 °F 28.3 °F 30.34 in NW 2.4 mph 9 mph 64% 0.00 in 0 W/m2
20:19 39.4 °F 28.2 °F 30.34 in NW 4.3 mph 12 mph 64% 0.00 in 0 W/m2
20:24 39.3 °F 28.2 °F 30.34 in NW 5 mph 14 mph 64% 0.00 in 0 W/m2
20:29 39.3 °F 28.2 °F 30.34 in NW 3.1 mph 14 mph 64% 0.00 in 0 W/m2
20:34 39.3 °F 28.1 °F 30.35 in NW 1.3 mph 14 mph 64% 0.00 in 0 W/m2
20:39 39.2 °F 28 °F 30.35 in WNW 2.8 mph 11 mph 64% 0.00 in 0 W/m2
20:44 39.1 °F 27.9 °F 30.35 in NW 3.6 mph 11 mph 64% 0.00 in 0 W/m2
20:49 38.9 °F 28 °F 30.35 in NW 3.1 mph 13 mph 64.5% 0.00 in 0 W/m2
20:54 38.9 °F 28.1 °F 30.35 in NW 2.1 mph 13 mph 65% 0.00 in 0 W/m2
20:59 38.8 °F 28 °F 30.36 in NW 2.9 mph 13 mph 65% 0.00 in 0 W/m2
21:04 38.7 °F 28 °F 30.36 in NW 1.6 mph 13 mph 65% 0.00 in 0 W/m2
21:09 38.6 °F 27.9 °F 30.36 in NW 6.3 mph 13 mph 65% 0.00 in 0 W/m2
21:14 38.6 °F 27.9 °F 30.36 in WNW 2.9 mph 13 mph 65% 0.00 in 0 W/m2
21:19 38.6 °F 27.9 °F 30.37 in WNW 3.8 mph 13 mph 65% 0.00 in 0 W/m2
21:24 38.5 °F 27.8 °F 30.37 in NW 3.5 mph 13 mph 65% 0.00 in 0 W/m2
21:29 38.5 °F 28 °F 30.38 in WNW 1.2 mph 13 mph 65.8% 0.00 in 0 W/m2
21:34 38.4 °F 28 °F 30.38 in NW 0.8 mph 13 mph 66% 0.00 in 0 W/m2
21:39 38.3 °F 27.9 °F 30.38 in NW 0.7 mph 4 mph 66% 0.00 in 0 W/m2
21:44 38.1 °F 27.8 °F 30.38 in NW 1 mph 5 mph 66% 0.00 in 0 W/m2
21:49 38 °F 28 °F 30.38 in NW 3.6 mph 14 mph 66.8% 0.00 in 0 W/m2
21:54 37.9 °F 27.9 °F 30.39 in NW 2.4 mph 14 mph 66.8% 0.00 in 0 W/m2
21:59 37.9 °F 27.9 °F 30.38 in NW 3.2 mph 14 mph 67% 0.00 in 0 W/m2
22:04 37.8 °F 27.9 °F 30.38 in WNW 2.5 mph 14 mph 67% 0.00 in 0 W/m2
22:09 37.8 °F 27.8 °F 30.39 in WNW 0.8 mph 10 mph 67% 0.00 in 0 W/m2
22:14 37.7 °F 27.7 °F 30.39 in NW 1.3 mph 10 mph 67% 0.00 in 0 W/m2
22:19 37.5 °F 27.6 °F 30.39 in NW 0.6 mph 10 mph 67% 0.00 in 0 W/m2
22:24 37.4 °F 27.5 °F 30.39 in NW 0.2 mph 10 mph 67.2% 0.00 in 0 W/m2
22:29 37.3 °F 27.7 °F 30.39 in NW 0.2 mph 10 mph 67.9% 0.00 in 0 W/m2
22:31 37.2 °F 27.3 °F 30.40 in Calm   10 mph 67% 0.00 in 0 W/m2
23:09 36.3 °F 27.1 °F 30.41 in Calm     69% 0.00 in 0 W/m2
23:14 36.2 °F 27.1 °F 30.42 in Calm     69.4% 0.00 in 0 W/m2
23:19 36 °F 27.1 °F 30.42 in Calm     70% 0.00 in 0 W/m2
23:24 35.7 °F 26.9 °F 30.42 in Calm     70% 0.00 in 0 W/m2
23:29 35.4 °F 27 °F 30.42 in Calm     71% 0.00 in 0 W/m2
23:34 35.2 °F 26.8 °F 30.42 in Calm     71.1% 0.00 in 0 W/m2
23:39 35 °F 26.9 °F 30.42 in Calm     72% 0.00 in 0 W/m2
23:44 34.8 °F 26.8 °F 30.42 in Calm     72.2% 0.00 in 0 W/m2
23:49 34.6 °F 26.9 °F 30.42 in Calm     73% 0.00 in 0 W/m2
23:54 34.4 °F 27 °F 30.42 in Calm     74% 0.00 in 0 W/m2
23:59 34.1 °F 27 °F 30.42 in Calm     75% 0.00 in 0 W/m2
Hartford County Weather
Compliments of Weather Underground - 4 mb